Time;durP1;ratioP1;P1;durP2;ratioP2;P2;SDS_P1;SDS_P2;PMS_P1;PMS_P2;Temp;Humidity;BMP_temperature;BMP_pressure;BME280_temperature;BME280_humidity;BME280_pressure;Samples;Min_cycle;Max_cycle;Signal;HPM_P1;HPM_P2
2022/02/04 00:28:08;;;;;;;41.92;31.25;;;;;;;6.76;100.00;101118.94;10457681;28;20045;-57
2022/02/04 00:33:12;;;;;;;43.85;31.00;;;;;;;6.72;100.00;101126.03;10457680;28;20049;-58
2022/02/04 00:38:28;;;;;;;48.22;32.25;;;;;;;6.66;100.00;101115.84;10457297;28;20056;-58
2022/02/04 00:43:31;;;;;;;46.13;30.70;;;;;;;6.61;100.00;101116.00;10457078;28;20492;-58
2022/02/04 00:53:55;;;;;;;40.50;30.00;;;;;;;6.72;100.00;101096.56;10456966;28;20048;-58
2022/02/04 01:26:38;;;;;;;43.60;29.95;;;;;;;6.67;100.00;101089.78;10465149;28;20049;-58
2022/02/04 01:31:41;;;;;;;39.80;27.67;;;;;;;6.76;100.00;101087.72;10464562;28;20049;-58
2022/02/04 01:36:43;;;;;;;37.00;26.08;;;;;;;6.75;100.00;101081.69;10464926;28;20052;-56
2022/02/04 01:41:46;;;;;;;37.08;27.38;;;;;;;6.85;100.00;101087.41;10464278;28;20072;-56
2022/02/04 01:46:48;;;;;;;34.90;24.35;;;;;;;6.87;100.00;101080.38;10463895;28;20053;-59
2022/02/04 01:51:50;;;;;;;41.42;27.40;;;;;;;6.80;100.00;101084.13;10463733;28;20409;-58
2022/02/04 01:56:53;;;;;;;34.58;24.88;;;;;;;6.72;100.00;101075.75;10462584;28;20049;-57
2022/02/04 02:01:55;;;;;;;35.95;25.00;;;;;;;6.88;100.00;101077.72;10464112;28;20079;-58
2022/02/04 02:07:01;;;;;;;28.90;21.70;;;;;;;6.80;100.00;101061.53;10463342;28;20060;-58
2022/02/04 02:12:07;;;;;;;30.75;22.05;;;;;;;6.74;100.00;101059.19;10463419;28;20045;-56
2022/02/04 02:33:37;;;;;;;29.50;22.02;;;;;;;6.69;100.00;101061.94;10462567;28;20049;-56
2022/02/04 02:59:35;;;;;;;27.98;20.00;;;;;;;6.61;100.00;101026.72;10460912;28;20374;-58
2022/02/04 03:04:37;;;;;;;27.80;18.42;;;;;;;6.57;100.00;101018.16;10461377;28;20045;-55
2022/02/04 03:16:07;;;;;;;24.13;17.42;;;;;;;6.55;100.00;101013.94;10467770;28;20045;-56
2022/02/04 03:21:19;;;;;;;22.67;16.83;;;;;;;6.70;100.00;101003.78;10460382;28;20052;-58
2022/02/04 03:31:28;;;;;;;25.13;17.30;;;;;;;6.65;100.00;100997.91;10460445;28;20049;-58
2022/02/04 03:36:31;;;;;;;22.92;15.75;;;;;;;6.64;100.00;100992.75;10460013;28;20044;-54
2022/02/04 03:41:33;;;;;;;30.95;15.25;;;;;;;6.70;100.00;100989.94;10459842;28;20053;-58
2022/02/04 03:46:35;;;;;;;20.88;14.80;;;;;;;6.64;100.00;100991.03;10459438;28;20048;-58
2022/02/04 03:51:38;;;;;;;24.40;17.33;;;;;;;6.57;100.00;100992.13;10460794;28;20059;-57
2022/02/04 03:56:40;;;;;;;22.58;16.15;;;;;;;6.69;100.00;100989.09;10465482;28;20045;-58
2022/02/04 04:01:42;;;;;;;21.80;14.48;;;;;;;6.64;100.00;100975.41;10458813;28;20056;-56
2022/02/04 04:06:46;;;;;;;21.75;14.20;;;;;;;6.64;100.00;100974.53;10458672;28;20049;-54
2022/02/04 04:11:49;;;;;;;20.60;15.98;;;;;;;6.64;100.00;100974.53;10458434;28;20053;-57
2022/02/04 04:16:51;;;;;;;20.52;14.52;;;;;;;6.69;100.00;100983.03;10458134;28;20404;-57
2022/02/04 04:21:53;;;;;;;20.83;13.60;;;;;;;6.81;100.00;100973.94;10458296;28;20057;-55
2022/02/04 04:26:56;;;;;;;22.05;14.60;;;;;;;6.76;100.00;100981.03;10457928;28;20049;-55
2022/02/04 04:31:58;;;;;;;19.15;14.90;;;;;;;6.83;100.00;100991.16;10457554;28;20516;-58
2022/02/04 04:37:00;;;;;;;18.08;13.02;;;;;;;6.78;100.00;100992.25;10457579;28;20124;-56
2022/02/04 05:29:56;;;;;;;23.92;11.25;;;;;;;6.81;100.00;100953.09;10455802;28;20055;-56
2022/02/04 05:35:00;;;;;;;12.38;9.35;;;;;;;6.72;100.00;100956.06;10456379;28;20053;-57
2022/02/04 05:40:07;;;;;;;12.40;9.98;;;;;;;6.75;100.00;100938.56;10456223;28;20053;-57
2022/02/04 05:45:19;;;;;;;14.18;9.13;;;;;;;6.78;100.00;100935.84;10455676;28;20045;-56
2022/02/04 06:00:42;;;;;;;14.15;8.65;;;;;;;6.72;100.00;100928.25;10455667;28;20124;-57
2022/02/04 06:26:53;;;;;;;9.20;7.28;;;;;;;6.78;100.00;100902.00;10463034;28;20045;-57
2022/02/04 06:31:55;;;;;;;11.27;7.20;;;;;;;6.83;100.00;100905.28;10462205;28;20052;-57
2022/02/04 06:36:57;;;;;;;6.75;5.50;;;;;;;6.79;100.00;100900.25;10462555;28;20049;-57
2022/02/04 06:42:00;;;;;;;9.52;7.95;;;;;;;6.79;100.00;100903.72;10462213;28;20057;-57
2022/02/04 06:47:03;;;;;;;9.15;7.47;;;;;;;6.74;100.00;100905.66;10461955;28;20052;-53
2022/02/04 06:52:06;;;;;;;9.88;6.88;;;;;;;6.93;100.00;100908.38;10461578;28;20490;-58
2022/02/04 06:57:08;;;;;;;8.75;6.80;;;;;;;6.91;100.00;100901.50;10461200;28;20056;-59
2022/02/04 07:02:10;;;;;;;9.98;6.25;;;;;;;6.88;100.00;100895.53;10461327;28;20056;-58
2022/02/04 07:07:14;;;;;;;9.82;6.45;;;;;;;6.90;100.00;100899.84;10461036;28;20401;-58
2022/02/04 07:12:32;;;;;;;7.90;6.80;;;;;;;6.82;100.00;100900.13;10460874;28;20049;-58
2022/02/04 07:19:45;;;;;;;6.78;6.07;;;;;;;6.92;100.00;100890.19;10460021;28;20041;-58
2022/02/04 07:23:03;;;;;;;6.35;5.75;;;;;;;6.81;100.00;100901.06;10459045;28;20060;-58
2022/02/04 07:28:05;;;;;;;8.93;6.35;;;;;;;6.71;100.00;100897.97;10460289;28;20048;-57
2022/02/04 07:33:19;;;;;;;7.18;5.22;;;;;;;6.85;100.00;100885.22;10460541;28;20056;-56
2022/02/04 07:43:44;;;;;;;8.43;7.18;;;;;;;6.79;100.00;100869.88;10449014;28;20064;-56
2022/02/04 07:48:47;;;;;;;7.38;6.40;;;;;;;6.72;100.00;100871.00;10459517;28;20088;-57
2022/02/04 07:53:49;;;;;;;7.72;7.00;;;;;;;6.72;100.00;100864.97;10458008;28;20056;-56
2022/02/04 07:59:01;;;;;;;13.02;7.03;;;;;;;6.76;100.00;100854.38;10459118;28;20051;-57
2022/02/04 08:04:38;;;;;;;9.10;6.30;;;;;;;6.67;100.00;100854.75;10459208;28;20052;-58
2022/02/04 08:25:28;;;;;;;7.75;6.93;;;;;;;6.86;100.00;100837.50;10458052;28;20045;-55
2022/02/04 08:52:33;;;;;;;;;;;;;;;6.94;100.00;100841.53;10457585;28;20057;-57
2022/02/04 08:57:29;;;;;;;12.57;9.20;;;;;;;7.07;100.00;100834.88;10453137;28;19920;-57
2022/02/04 09:02:42;;;;;;;10.48;9.35;;;;;;;7.02;100.00;100827.25;10457114;28;20124;-57
2022/02/04 09:22:54;;;;;;;15.00;12.90;;;;;;;7.01;100.00;100817.78;10456424;28;20055;-53
2022/02/04 09:27:56;;;;;;;14.38;11.52;;;;;;;6.96;100.00;100818.88;10455029;28;20448;-58
2022/02/04 09:32:59;;;;;;;14.98;11.95;;;;;;;7.01;100.00;100815.19;10455930;28;20053;-57
2022/02/04 09:38:02;;;;;;;19.83;15.48;;;;;;;6.90;100.00;100817.38;10456129;28;20527;-55
2022/02/04 09:43:05;;;;;;;17.20;14.93;;;;;;;6.90;100.00;100798.31;10458745;28;20063;-59
2022/02/04 09:48:11;;;;;;;14.00;12.35;;;;;;;7.01;100.00;100765.72;10463983;28;20492;-58
2022/02/04 10:04:51;;;;;;;12.95;11.60;;;;;;;7.16;100.00;100740.78;10463809;28;20053;-57
2022/02/04 10:11:43;;;;;;;14.38;11.93;;;;;;;7.00;100.00;100743.19;10463756;28;20048;-57
2022/02/04 10:20:39;;;;;;;11.50;10.30;;;;;;;7.03;100.00;100737.84;10463188;28;20041;-58
2022/02/04 10:25:42;;;;;;;13.23;11.43;;;;;;;6.96;100.00;100736.44;10461570;28;20052;-57
2022/02/04 10:30:45;;;;;;;12.27;10.63;;;;;;;7.02;100.00;100728.34;10462458;28;20084;-58
2022/02/04 10:35:51;;;;;;;15.88;13.23;;;;;;;7.19;100.00;100724.16;10461196;28;20045;-56
2022/02/04 10:46:47;;;;;;;11.95;9.80;;;;;;;7.13;100.00;100712.28;10439315;28;20040;-58
2022/02/04 11:02:11;;;;;;;11.05;9.85;;;;;;;7.54;100.00;100672.22;10461373;28;20049;-57
2022/02/04 11:07:49;;;;;;;9.93;8.93;;;;;;;7.60;100.00;100679.78;10459659;28;20497;-56
2022/02/04 11:34:26;;;;;;;6.63;6.03;;;;;;;7.60;100.00;100622.44;10459383;28;20053;-58
2022/02/04 11:51:16;;;;;;;5.00;4.53;;;;;;;7.87;100.00;100562.91;10459644;28;20052;-59
2022/02/04 11:55:59;;;;;;;4.63;4.22;;;;;;;7.94;100.00;100547.81;10455573;28;20044;-57
2022/02/04 12:01:07;;;;;;;4.25;3.83;;;;;;;7.96;100.00;100523.34;10441175;28;20044;-58
2022/02/04 12:06:28;;;;;;;5.35;4.20;;;;;;;8.38;100.00;100518.59;10458157;28;20048;-59
2022/02/04 12:11:40;;;;;;;7.93;4.45;;;;;;;8.15;100.00;100532.81;10458688;28;20045;-57
2022/02/04 12:17:01;;;;;;;6.53;4.22;;;;;;;8.13;100.00;100508.59;10458865;28;20045;-58
2022/02/04 12:22:04;;;;;;;4.97;4.37;;;;;;;7.98;100.00;100497.19;10458238;28;20057;-58
2022/02/04 12:27:29;;;;;;;5.25;4.75;;;;;;;7.92;100.00;100484.50;10457921;28;20057;-58
2022/02/04 12:32:31;;;;;;;5.30;4.43;;;;;;;8.03;100.00;100465.69;10457708;28;20053;-58
2022/02/04 12:37:35;;;;;;;5.82;4.50;;;;;;;7.82;100.00;100461.50;10456537;28;20489;-59
2022/02/04 12:42:37;;;;;;;7.60;4.35;;;;;;;8.19;100.00;100436.09;10457185;28;20049;-58
2022/02/04 12:47:41;;;;;;;4.65;3.63;;;;;;;8.06;100.00;100426.41;10457512;28;20382;-58
2022/02/04 12:52:46;;;;;;;6.78;4.22;;;;;;;8.12;100.00;100424.31;10456992;28;20044;-57
2022/02/04 12:58:41;;;;;;;3.80;3.38;;;;;;;8.10;100.00;100430.53;10457389;28;20045;-57
2022/02/04 13:07:30;;;;;;;4.13;2.90;;;;;;;8.03;100.00;100418.75;10455658;28;20062;-57
2022/02/04 13:09:33;;;;;;;3.08;2.63;;;;;;;7.95;100.00;100409.56;10456682;28;20041;-57
2022/02/04 13:14:29;;;;;;;3.65;2.90;;;;;;;7.91;100.00;100401.97;10457811;28;20045;-58
2022/02/04 13:19:32;;;;;;;3.05;2.78;;;;;;;8.00;100.00;100385.84;10455614;28;20440;-58
2022/02/04 13:24:34;;;;;;;5.30;3.30;;;;;;;7.88;100.00;100376.06;10456899;28;20489;-59
2022/02/04 13:29:36;;;;;;;4.60;3.30;;;;;;;7.98;100.00;100379.88;10456645;28;20057;-58
2022/02/04 13:34:39;;;;;;;4.25;3.85;;;;;;;7.85;100.00;100365.81;10456378;28;20132;-58
2022/02/04 13:39:59;;;;;;;7.50;4.32;;;;;;;7.99;100.00;100345.91;10455286;28;20056;-57
2022/02/04 13:45:11;;;;;;;5.40;4.10;;;;;;;7.93;100.00;100343.63;10456410;28;20059;-58
2022/02/04 14:06:21;;;;;;;10.27;6.85;;;;;;;7.38;100.00;100330.88;10455678;28;20073;-57
2022/02/04 14:11:35;;;;;;;8.85;6.90;;;;;;;7.27;100.00;100325.41;10456536;28;20045;-58
2022/02/04 14:16:39;;;;;;;10.02;7.00;;;;;;;7.38;100.00;100321.31;10455184;28;20049;-57
2022/02/04 14:21:41;;;;;;;11.20;7.00;;;;;;;7.21;100.00;100317.00;10455829;28;20059;-57
2022/02/04 14:26:47;;;;;;;10.55;7.43;;;;;;;7.24;100.00;100315.97;10455573;28;20049;-55
2022/02/04 14:31:59;;;;;;;9.98;8.07;;;;;;;7.11;100.00;100310.56;10462876;28;20057;-57
2022/02/04 14:37:22;;;;;;;9.65;7.85;;;;;;;7.04;100.00;100294.41;10462518;28;20061;-58
2022/02/04 15:03:40;;;;;;;10.95;7.75;;;;;;;7.01;100.00;100291.09;10461577;28;20052;-59
2022/02/04 15:08:44;;;;;;;6.13;3.67;;;;;;;5.43;100.00;100411.88;10460991;28;20048;-55
2022/02/04 15:13:48;;;;;;;3.95;1.95;;;;;;;4.59;100.00;100418.69;10460614;28;20059;-58
2022/02/04 15:18:50;;;;;;;3.50;1.58;;;;;;;4.37;100.00;100437.69;10460626;28;20486;-54
2022/02/04 15:23:54;;;;;;;2.13;1.40;;;;;;;4.29;100.00;100468.22;10459113;28;20497;-58
2022/02/04 15:29:04;;;;;;;0.70;0.70;;;;;;;4.15;100.00;100499.78;10460280;28;20052;-56
2022/02/04 15:34:07;;;;;;;0.98;0.60;;;;;;;3.86;100.00;100513.78;10460332;28;20056;-56
2022/02/04 15:39:17;;;;;;;0.50;0.50;;;;;;;3.76;100.00;100539.13;10459223;28;20045;-58
2022/02/04 16:04:45;;;;;;;1.23;1.13;;;;;;;3.93;100.00;100624.03;10457766;28;20053;-56
2022/02/04 16:09:57;;;;;;;1.60;1.50;;;;;;;4.05;100.00;100644.38;10457605;28;20056;-57
2022/02/04 16:15:08;;;;;;;2.45;2.15;;;;;;;3.71;100.00;100670.50;10457680;28;20049;-57
2022/02/04 16:20:17;;;;;;;3.22;3.03;;;;;;;3.62;100.00;100681.16;10458732;28;20049;-58
2022/02/04 16:25:44;;;;;;;3.67;3.38;;;;;;;3.70;100.00;100703.31;10458166;28;20055;-56
2022/02/04 16:30:47;;;;;;;3.70;3.30;;;;;;;3.86;100.00;100724.41;10458524;28;20041;-58
2022/02/04 16:35:49;;;;;;;3.70;3.38;;;;;;;3.67;100.00;100741.41;10457717;28;20040;-55
2022/02/04 16:40:56;;;;;;;4.25;3.08;;;;;;;3.61;100.00;100757.09;10457691;28;20041;-57
2022/02/04 16:45:58;;;;;;;4.80;3.53;;;;;;;3.63;100.00;100776.91;10456916;28;20060;-56
2022/02/04 16:51:01;;;;;;;5.70;4.38;;;;;;;3.76;100.00;100799.84;10457072;28;20530;-56
2022/02/04 16:56:05;;;;;;;3.70;3.40;;;;;;;3.90;100.00;100814.09;10455939;28;20060;-58
2022/02/04 17:01:07;;;;;;;6.57;3.88;;;;;;;3.61;100.00;100833.03;10457053;28;20052;-56
2022/02/04 17:06:11;;;;;;;5.43;3.90;;;;;;;3.59;100.00;100867.66;10457133;28;20052;-59
2022/02/04 17:11:19;;;;;;;3.45;2.88;;;;;;;3.57;100.00;100877.19;10456741;28;20052;-59
2022/02/04 17:16:21;;;;;;;3.47;3.25;;;;;;;3.62;100.00;100886.53;10456687;28;20049;-59
2022/02/04 17:21:25;;;;;;;7.90;2.83;;;;;;;3.77;100.00;100898.22;10456563;28;20055;-58
2022/02/04 17:26:28;;;;;;;4.85;3.20;;;;;;;3.45;100.00;100910.28;10456059;28;20053;-59
2022/02/04 17:31:30;;;;;;;3.70;3.40;;;;;;;3.31;100.00;100931.34;10457142;28;20049;-56
2022/02/04 17:36:37;;;;;;;3.15;2.75;;;;;;;3.36;100.00;100949.31;10456137;28;20049;-58
2022/02/04 17:41:40;;;;;;;4.38;2.42;;;;;;;3.48;100.00;100971.47;10456039;28;20045;-58
2022/02/04 17:46:44;;;;;;;4.25;2.63;;;;;;;3.41;100.00;100985.44;10456190;28;20049;-54
2022/02/04 17:52:25;;;;;;;1.92;1.58;;;;;;;3.25;100.00;100988.41;10455770;28;20053;-57
2022/02/04 17:57:20;;;;;;;3.72;1.75;;;;;;;3.05;100.00;100990.63;10454755;28;20049;-57
2022/02/04 18:02:35;;;;;;;7.07;1.98;;;;;;;3.02;100.00;101011.38;10457075;28;20067;-57
2022/02/04 18:07:37;;;;;;;3.20;1.30;;;;;;;3.02;100.00;101022.56;10463524;28;20045;-56
2022/02/04 18:12:39;;;;;;;6.82;1.60;;;;;;;2.96;100.00;101021.00;10463164;28;20045;-55
2022/02/04 18:17:42;;;;;;;8.10;1.70;;;;;;;2.94;100.00;101037.41;10463858;28;20049;-58
2022/02/04 18:22:44;;;;;;;6.88;1.67;;;;;;;3.10;100.00;101041.38;10462840;28;20052;-57
2022/02/04 18:27:48;;;;;;;10.82;2.00;;;;;;;3.03;100.00;101054.50;10462922;28;20056;-53
2022/02/04 18:32:51;;;;;;;11.68;2.80;;;;;;;3.09;100.00;101055.22;10462503;28;20059;-55
2022/02/04 18:43:36;;;;;;;7.50;1.70;;;;;;;3.08;100.00;101069.03;10462350;28;20067;-57
2022/02/04 18:48:49;;;;;;;6.60;3.10;;;;;;;3.02;100.00;101086.41;10462150;28;20048;-56
2022/02/04 18:54:12;;;;;;;11.05;3.35;;;;;;;2.89;100.00;101096.16;10462068;28;20059;-58
2022/02/04 18:59:15;;;;;;;43.33;22.27;;;;;;;2.87;100.00;101095.34;10461702;28;20052;-57
2022/02/04 19:04:22;;;;;;;12.27;2.85;;;;;;;2.89;100.00;101101.31;10461387;28;20375;-56
2022/02/04 19:09:25;;;;;;;14.05;4.50;;;;;;;2.79;100.00;101111.00;10461158;28;20425;-57
2022/02/04 19:20:10;;;;;;;12.07;3.38;;;;;;;2.86;100.00;101122.94;10448903;28;20057;-55
2022/02/04 19:25:18;;;;;;;6.97;3.75;;;;;;;2.90;100.00;101121.97;10460948;28;20049;-57
2022/02/04 19:30:22;;;;;;;13.55;3.72;;;;;;;2.97;100.00;101120.97;10459055;28;20056;-51
2022/02/04 19:35:24;;;;;;;9.38;3.75;;;;;;;3.08;100.00;101128.53;10459193;28;20051;-57
2022/02/04 19:40:26;;;;;;;13.40;4.80;;;;;;;3.17;100.00;101128.31;10459417;28;20051;-57
2022/02/04 19:45:33;;;;;;;17.20;4.85;;;;;;;3.02;100.00;101138.97;10459162;28;20045;-54
2022/02/04 19:50:41;;;;;;;14.60;5.10;;;;;;;3.01;100.00;101141.59;10459587;28;20071;-57
2022/02/04 20:06:55;;;;;;;12.93;4.78;;;;;;;2.94;100.00;101159.84;10459286;28;20401;-56
2022/02/04 20:27:42;;;;;;;19.42;8.13;;;;;;;3.05;100.00;101176.88;10458426;28;20052;-58
2022/02/04 20:32:45;;;;;;;21.45;6.57;;;;;;;3.00;100.00;101189.06;10458053;28;20047;-58
2022/02/04 20:37:47;;;;;;;11.40;5.82;;;;;;;3.00;100.00;101202.84;10457798;28;20137;-57
2022/02/04 20:42:50;;;;;;;17.13;7.20;;;;;;;2.98;100.00;101210.63;10457727;28;20053;-56
2022/02/04 20:47:56;;;;;;;19.90;6.38;;;;;;;2.92;100.00;101213.31;10457545;28;20041;-58
2022/02/04 20:53:00;;;;;;;26.52;5.97;;;;;;;2.93;100.00;101230.56;10457315;28;20049;-54
2022/02/04 20:58:02;;;;;;;13.80;7.35;;;;;;;2.76;100.00;101238.63;10456920;28;20124;-55
2022/02/04 21:03:06;;;;;;;14.93;5.82;;;;;;;2.92;100.00;101240.94;10457189;28;20059;-56
2022/02/04 21:18:32;;;;;;;10.60;6.40;;;;;;;3.06;100.00;101258.78;10455845;28;20405;-53
2022/02/04 21:23:34;;;;;;;11.70;4.95;;;;;;;3.15;100.00;101258.63;10454989;28;20057;-56
2022/02/04 21:28:37;;;;;;;14.07;5.22;;;;;;;3.24;100.00;101271.38;10456204;28;20045;-54
2022/02/04 21:38:44;;;;;;;11.95;3.92;;;;;;;3.28;100.00;101280.78;10459936;28;20052;-57
2022/02/04 21:43:51;;;;;;;11.57;3.95;;;;;;;3.25;100.00;101296.38;10446950;28;20057;-57
2022/02/04 21:48:56;;;;;;;12.52;4.18;;;;;;;3.29;100.00;101295.41;10463120;28;20489;-56
2022/02/04 21:53:59;;;;;;;12.70;3.60;;;;;;;3.32;100.00;101300.53;10464473;28;20396;-57
2022/02/04 21:59:01;;;;;;;13.48;3.72;;;;;;;3.34;100.00;101308.28;10462699;28;20417;-56
2022/02/04 22:04:03;;;;;;;12.05;3.85;;;;;;;3.31;100.00;101321.28;10462185;28;20041;-54
2022/02/04 22:09:21;;;;;;;12.90;3.17;;;;;;;3.41;100.00;101321.97;10462863;28;20063;-53
2022/02/04 22:14:38;;;;;;;16.38;3.92;;;;;;;3.57;100.00;101322.53;10463942;28;20088;-58
2022/02/04 22:25:02;;;;;;;12.65;3.40;;;;;;;3.57;100.00;101341.50;10463624;28;20052;-57
2022/02/04 22:30:10;;;;;;;11.48;2.85;;;;;;;3.50;100.00;101335.59;10462577;28;20049;-58
2022/02/04 22:50:53;;;;;;;7.43;2.30;;;;;;;3.31;100.00;101352.34;10462093;28;20052;-56
2022/02/04 23:01:04;;;;;;;6.72;2.22;;;;;;;3.29;100.00;101374.81;10461597;28;20044;-56
2022/02/04 23:06:09;;;;;;;11.30;2.53;;;;;;;3.19;100.00;101381.03;10462644;28;20079;-54
2022/02/04 23:11:12;;;;;;;11.27;2.80;;;;;;;3.15;100.00;101385.41;10461300;28;20053;-56
2022/02/04 23:16:20;;;;;;;8.57;2.85;;;;;;;3.07;100.00;101388.13;10460908;28;20053;-58
2022/02/04 23:21:30;;;;;;;13.20;4.38;;;;;;;3.24;100.00;101393.00;10461223;28;20052;-57
2022/02/04 23:26:39;;;;;;;10.18;2.13;;;;;;;3.18;100.00;101393.13;10460734;28;20053;-56
2022/02/04 23:32:14;;;;;;;8.45;2.25;;;;;;;3.11;100.00;101397.53;10459117;28;20059;-55
2022/02/04 23:52:48;;;;;;;10.65;3.55;;;;;;;2.85;100.00;101425.56;10459232;28;20056;-55
2022/02/04 23:57:55;;;;;;;17.00;3.95;;;;;;;2.71;100.00;101443.88;10459417;28;20048;-55
